createdAt,value
2023-11-21T00:00:34.971Z,100342.53
2023-11-21T00:03:06.154Z,100342.78
2023-11-21T00:05:34.385Z,100352.78
2023-11-21T00:08:06.451Z,100350.59
2023-11-21T00:10:35.206Z,100347.91
2023-11-21T00:13:08.345Z,100355.84
2023-11-21T00:15:37.013Z,100353.06
2023-11-21T00:18:06.252Z,100367.28
2023-11-21T00:20:37.567Z,100364.06
2023-11-21T00:23:11.523Z,100364.88
2023-11-21T00:25:42.270Z,100366.69
2023-11-21T00:28:11.062Z,100369.19
2023-11-21T00:30:39.352Z,100369.59
2023-11-21T00:33:07.793Z,100371.28
2023-11-21T00:35:37.510Z,100378.38
2023-11-21T00:38:07.178Z,100381.69
2023-11-21T00:40:36.083Z,100390.00
2023-11-21T00:43:07.018Z,100389.88
2023-11-21T00:45:37.640Z,100392.66
2023-11-21T00:48:06.524Z,100400.25
2023-11-21T00:50:35.317Z,100401.34
2023-11-21T00:53:04.660Z,100395.53
2023-11-21T00:55:35.992Z,100401.78
2023-11-21T00:58:05.527Z,100405.38
2023-11-21T01:00:36.372Z,100399.13
2023-11-21T01:03:06.722Z,100412.84
2023-11-21T01:05:38.037Z,100413.94
2023-11-21T01:08:08.173Z,100412.28
2023-11-21T01:10:38.008Z,100413.16
2023-11-21T01:13:07.310Z,100417.34
2023-11-21T01:15:36.552Z,100419.84
2023-11-21T01:18:10.869Z,100428.94
2023-11-21T01:20:41.166Z,100437.22
2023-11-21T01:23:09.567Z,100429.31
2023-11-21T01:25:40.550Z,100434.56
2023-11-21T01:28:13.148Z,100447.78
2023-11-21T01:30:41.618Z,100445.03
2023-11-21T01:33:10.447Z,100456.09
2023-11-21T01:35:38.833Z,100454.56
2023-11-21T01:38:09.286Z,100447.94
2023-11-21T01:40:37.686Z,100450.56
2023-11-21T01:43:07.468Z,100446.94
2023-11-21T01:45:36.433Z,100449.69
2023-11-21T01:48:06.183Z,100453.03
2023-11-21T01:50:36.648Z,100453.22
2023-11-21T01:53:05.098Z,100451.22
2023-11-21T01:55:35.176Z,100456.38
2023-11-21T01:58:03.495Z,100465.53
2023-11-21T02:00:34.512Z,100463.84
2023-11-21T02:03:05.252Z,100461.81
2023-11-21T02:05:33.681Z,100459.88
2023-11-21T02:08:03.677Z,100467.09
2023-11-21T02:10:33.037Z,100466.81
2023-11-21T02:13:04.260Z,100467.09
2023-11-21T02:15:34.108Z,100469.59
2023-11-21T02:18:04.220Z,100480.66
2023-11-21T02:20:32.854Z,100478.03
2023-11-21T02:23:04.175Z,100487.03
2023-11-21T02:25:34.323Z,100491.91
2023-11-21T02:28:04.561Z,100482.59
2023-11-21T02:30:33.761Z,100474.88
2023-11-21T02:33:02.280Z,100488.84
2023-11-21T02:35:33.547Z,100488.69
2023-11-21T02:38:03.763Z,100494.56
2023-11-21T02:40:32.771Z,100497.06
2023-11-21T02:43:01.283Z,100503.03
2023-11-21T02:45:29.658Z,100503.44
2023-11-21T02:47:59.056Z,100506.19
2023-11-21T02:50:28.063Z,100495.31
2023-11-21T02:52:56.474Z,100502.38
2023-11-21T02:55:26.616Z,100495.56
2023-11-21T02:58:00.366Z,100494.97
2023-11-21T03:00:29.937Z,100494.16
2023-11-21T03:02:59.499Z,100499.09
2023-11-21T03:05:30.180Z,100502.19
2023-11-21T03:08:00.184Z,100498.47
2023-11-21T03:10:29.715Z,100507.22
2023-11-21T03:12:58.966Z,100511.44
2023-11-21T03:15:27.100Z,100520.78
2023-11-21T03:17:55.594Z,100520.50
2023-11-21T03:20:24.215Z,100517.69
2023-11-21T03:22:53.618Z,100525.09
2023-11-21T03:25:25.186Z,100516.72
2023-11-21T03:27:55.454Z,100536.00
2023-11-21T03:30:24.371Z,100535.91
2023-11-21T03:32:52.730Z,100537.31
2023-11-21T03:35:22.232Z,100538.88
2023-11-21T03:37:50.647Z,100540.56
2023-11-21T03:40:18.958Z,100542.00
2023-11-21T03:42:47.218Z,100533.50
2023-11-21T03:45:16.935Z,100547.88
2023-11-21T03:47:45.444Z,100540.00
2023-11-21T03:50:13.856Z,100551.66
2023-11-21T03:52:42.858Z,100558.59
2023-11-21T03:55:12.642Z,100561.31
2023-11-21T03:57:44.708Z,100566.59
2023-11-21T04:00:18.118Z,100566.38
2023-11-21T04:02:47.719Z,100565.41
2023-11-21T04:05:16.272Z,100565.75
2023-11-21T04:07:45.052Z,100569.13
2023-11-21T04:10:14.581Z,100573.56
2023-11-21T04:12:44.308Z,100582.19
2023-11-21T04:15:14.361Z,100583.53
2023-11-21T04:17:44.567Z,100587.22
2023-11-21T04:20:14.445Z,100581.22
2023-11-21T04:22:46.096Z,100593.22
2023-11-21T04:25:17.318Z,100587.25
2023-11-21T04:27:48.404Z,100600.66
2023-11-21T04:30:17.907Z,100600.63
2023-11-21T04:32:47.547Z,100601.97
2023-11-21T04:35:16.295Z,100600.53
2023-11-21T04:37:44.791Z,100602.56
2023-11-21T04:40:14.269Z,100608.19
2023-11-21T04:42:42.843Z,100613.09
2023-11-21T04:45:13.709Z,100608.91
2023-11-21T04:47:42.868Z,100617.91
2023-11-21T04:50:13.022Z,100611.53
2023-11-21T04:52:41.824Z,100612.50
2023-11-21T04:55:12.374Z,100621.25
2023-11-21T04:57:42.566Z,100617.19
2023-11-21T05:00:12.395Z,100620.78
2023-11-21T05:02:41.305Z,100624.72
2023-11-21T05:05:12.071Z,100626.53
2023-11-21T05:07:43.956Z,100635.38
2023-11-21T05:10:15.573Z,100633.00
2023-11-21T05:12:44.598Z,100644.50
2023-11-21T05:15:21.051Z,100645.81
2023-11-21T05:17:50.995Z,100649.03
2023-11-21T05:20:22.493Z,100655.75
2023-11-21T05:22:52.550Z,100654.78
2023-11-21T05:25:21.193Z,100667.59
2023-11-21T05:27:50.181Z,100658.63
2023-11-21T05:30:18.214Z,100661.03
2023-11-21T05:32:48.030Z,100662.22
2023-11-21T05:35:17.818Z,100665.44
2023-11-21T05:37:47.091Z,100661.13
2023-11-21T05:40:18.839Z,100667.84
2023-11-21T05:42:47.973Z,100670.34
2023-11-21T05:45:19.950Z,100679.69
2023-11-21T05:47:48.813Z,100677.31
2023-11-21T05:50:19.797Z,100693.84
2023-11-21T05:52:49.125Z,100691.69
2023-11-21T05:55:18.689Z,100695.78
2023-11-21T05:57:47.182Z,100688.09
2023-11-21T06:00:21.974Z,100692.53
2023-11-21T06:02:54.101Z,100690.47
2023-11-21T06:05:25.975Z,100696.34
2023-11-21T06:07:59.875Z,100705.56
2023-11-21T06:10:30.250Z,100711.81
2023-11-21T06:13:01.292Z,100709.03
2023-11-21T06:15:32.278Z,100723.53
2023-11-21T06:18:00.946Z,100724.13
2023-11-21T06:20:29.120Z,100726.75
2023-11-21T06:22:58.511Z,100724.09
2023-11-21T06:25:26.699Z,100735.84
2023-11-21T06:27:57.529Z,100736.69
2023-11-21T06:30:25.872Z,100739.78
2023-11-21T06:32:54.773Z,100744.69
2023-11-21T06:35:23.654Z,100751.66
2023-11-21T06:37:53.157Z,100758.59
2023-11-21T06:40:22.258Z,100762.34
2023-11-21T06:42:54.049Z,100768.06
2023-11-21T06:45:26.712Z,100779.81
2023-11-21T06:47:55.855Z,100775.03
2023-11-21T06:50:26.104Z,100783.31
2023-11-21T06:52:54.535Z,100787.97
2023-11-21T06:55:22.903Z,100777.50
2023-11-21T06:57:54.065Z,100783.41
2023-11-21T07:00:23.892Z,100779.59
2023-11-21T07:02:54.571Z,100786.97
2023-11-21T07:05:23.234Z,100787.97
2023-11-21T07:07:52.071Z,100785.16
2023-11-21T07:10:22.054Z,100784.31
2023-11-21T07:12:50.158Z,100796.47
2023-11-21T07:15:21.171Z,100796.06
2023-11-21T07:17:51.250Z,100802.81
2023-11-21T07:20:19.529Z,100807.50
2023-11-21T07:22:47.894Z,100807.16
2023-11-21T07:25:16.154Z,100803.06
2023-11-21T07:27:45.400Z,100806.53
2023-11-21T07:30:15.586Z,100803.56
2023-11-21T07:32:43.958Z,100807.25
2023-11-21T07:35:13.524Z,100808.00
2023-11-21T07:37:41.506Z,100817.25
2023-11-21T07:40:12.694Z,100812.41
2023-11-21T07:42:41.245Z,100818.16
2023-11-21T07:45:10.410Z,100826.19
2023-11-21T07:47:40.594Z,100830.97
2023-11-21T07:50:11.464Z,100826.94
2023-11-21T07:52:41.013Z,100825.16
2023-11-21T07:55:10.075Z,100825.09
2023-11-21T07:57:38.691Z,100830.38
2023-11-21T08:00:13.122Z,100830.97
2023-11-21T08:02:44.060Z,100833.78
2023-11-21T08:05:21.674Z,100835.34
2023-11-21T08:07:56.294Z,100849.25
2023-11-21T08:10:26.608Z,100853.06
2023-11-21T08:12:55.323Z,100868.84
2023-11-21T08:15:25.336Z,100864.94
2023-11-21T08:17:54.273Z,100875.47
2023-11-21T08:20:24.131Z,100875.13
2023-11-21T08:22:53.051Z,100873.72
2023-11-21T08:25:23.243Z,100867.03
2023-11-21T08:27:54.468Z,100861.78
2023-11-21T08:30:25.038Z,100871.59
2023-11-21T08:32:55.159Z,100865.34
2023-11-21T08:35:24.708Z,100866.31
2023-11-21T08:37:54.043Z,100870.50
2023-11-21T08:40:24.776Z,100879.25
2023-11-21T08:42:53.941Z,100876.38
2023-11-21T08:45:23.148Z,100881.16
2023-11-21T08:47:51.925Z,100886.50
2023-11-21T08:50:21.365Z,100889.38
2023-11-21T08:52:50.893Z,100896.31
2023-11-21T08:55:23.503Z,100898.00
2023-11-21T08:57:53.420Z,100894.91
2023-11-21T09:00:23.202Z,100903.16
2023-11-21T09:02:51.630Z,100902.53
2023-11-21T09:05:21.874Z,100903.38
2023-11-21T09:07:52.973Z,100910.22
2023-11-21T09:10:21.919Z,100916.72
2023-11-21T09:12:50.328Z,100926.69
2023-11-21T09:15:21.649Z,100925.81
2023-11-21T09:17:50.425Z,100935.78
2023-11-21T09:20:23.818Z,100933.53
2023-11-21T09:22:52.479Z,100940.81
2023-11-21T09:25:21.512Z,100943.03
2023-11-21T09:27:51.628Z,100944.38
2023-11-21T09:30:21.699Z,100945.03
2023-11-21T09:32:54.190Z,100946.81
2023-11-21T09:35:25.238Z,100949.06
2023-11-21T09:37:55.894Z,100955.59
2023-11-21T09:40:24.891Z,100968.47
2023-11-21T09:42:57.901Z,100965.91
2023-11-21T09:45:30.153Z,100968.31
2023-11-21T09:47:59.616Z,100965.56
2023-11-21T09:50:28.357Z,100981.56
2023-11-21T09:53:02.262Z,100979.41
2023-11-21T09:55:32.702Z,100979.25
2023-11-21T09:58:02.459Z,100981.00
2023-11-21T10:00:34.189Z,100975.03
2023-11-21T10:03:05.696Z,100983.63
2023-11-21T10:05:35.507Z,100978.91
2023-11-21T10:08:04.186Z,100980.09
2023-11-21T10:10:34.825Z,100989.94
2023-11-21T10:13:05.426Z,100979.47
2023-11-21T10:15:37.492Z,100982.22
2023-11-21T10:18:10.635Z,100983.34
2023-11-21T10:20:40.480Z,100979.09
2023-11-21T10:23:12.671Z,100984.41
2023-11-21T10:25:41.143Z,100984.91
2023-11-21T10:28:10.045Z,100991.91
2023-11-21T10:30:41.295Z,100998.03
2023-11-21T10:33:10.438Z,100990.78
2023-11-21T10:35:48.439Z,100994.13
2023-11-21T10:38:16.939Z,101000.34
2023-11-21T10:40:47.848Z,100999.88
2023-11-21T10:43:19.346Z,101002.31
2023-11-21T10:45:49.271Z,101010.53
2023-11-21T10:48:20.902Z,101014.47
2023-11-21T10:50:50.405Z,101013.59
2023-11-21T10:53:20.292Z,101018.03
2023-11-21T10:55:49.556Z,101012.72
2023-11-21T10:58:19.247Z,101024.88
2023-11-21T11:00:53.170Z,101011.25
2023-11-21T11:03:21.480Z,101021.16
2023-11-21T11:05:54.226Z,101014.50
2023-11-21T11:08:28.225Z,101017.97
2023-11-21T11:10:59.760Z,101018.16
2023-11-21T11:13:29.514Z,101018.44
2023-11-21T11:16:03.089Z,101019.63
2023-11-21T11:18:31.974Z,101031.50
2023-11-21T11:21:10.172Z,101026.94
2023-11-21T11:23:47.995Z,101027.56
2023-11-21T11:26:24.261Z,101030.53
2023-11-21T11:29:01.437Z,101038.28
2023-11-21T11:31:40.351Z,101041.22
2023-11-21T11:34:16.191Z,101045.88
2023-11-21T11:36:50.238Z,101055.16
2023-11-21T11:39:32.858Z,101056.97
2023-11-21T11:42:05.327Z,101065.38
2023-11-21T11:44:54.607Z,101068.00
2023-11-21T11:47:29.529Z,101074.75
2023-11-21T11:50:15.504Z,101073.09
2023-11-21T11:52:47.391Z,101090.13
2023-11-21T11:55:21.872Z,101085.53
2023-11-21T12:00:41.110Z,101088.66
2023-11-21T12:03:12.310Z,101097.72
2023-11-21T12:05:45.225Z,101098.47
2023-11-21T12:08:13.949Z,101099.81
2023-11-21T12:10:45.576Z,101099.81
2023-11-21T12:13:14.691Z,101104.34
2023-11-21T12:15:46.508Z,101108.03
2023-11-21T12:18:16.950Z,101118.44
2023-11-21T12:20:49.713Z,101115.41
2023-11-21T12:23:18.162Z,101127.66
2023-11-21T12:25:46.649Z,101131.09
2023-11-21T12:28:15.862Z,101138.56
2023-11-21T12:30:44.978Z,101133.53
2023-11-21T12:33:18.561Z,101133.75
2023-11-21T12:35:49.713Z,101148.91
2023-11-21T12:38:19.969Z,101144.59
2023-11-21T12:40:49.235Z,101145.41
2023-11-21T12:43:17.584Z,101154.34
2023-11-21T12:45:48.735Z,101152.44
2023-11-21T12:48:23.922Z,101153.34
2023-11-21T12:50:54.860Z,101147.31
2023-11-21T12:53:25.606Z,101143.13
2023-11-21T12:55:53.932Z,101148.28
2023-11-21T12:58:24.117Z,101150.28
2023-11-21T13:00:55.133Z,101155.53
2023-11-21T13:03:27.368Z,101160.91
2023-11-21T13:06:00.551Z,101161.66
2023-11-21T13:08:31.282Z,101172.91
2023-11-21T13:11:00.044Z,101175.22
2023-11-21T13:13:30.368Z,101172.81
2023-11-21T13:16:02.323Z,101174.81
2023-11-21T13:18:32.374Z,101187.09
2023-11-21T13:21:11.293Z,101186.78
2023-11-21T13:23:43.012Z,101181.63
2023-11-21T13:26:11.524Z,101190.81
2023-11-21T13:28:41.709Z,101192.63
2023-11-21T13:31:22.949Z,101194.56
2023-11-21T13:33:59.450Z,101203.19
2023-11-21T13:36:32.757Z,101203.34
2023-11-21T13:39:05.979Z,101217.25
2023-11-21T13:41:34.528Z,101205.47
2023-11-21T13:44:16.935Z,101205.66
2023-11-21T13:46:47.480Z,101215.91
2023-11-21T13:49:17.622Z,101213.38
2023-11-21T13:51:49.475Z,101224.34
2023-11-21T13:54:22.275Z,101230.69
2023-11-21T13:56:51.774Z,101232.53
2023-11-21T13:59:24.169Z,101239.69
2023-11-21T14:02:01.362Z,101247.81
2023-11-21T14:04:55.802Z,101251.63
2023-11-21T14:07:33.993Z,101265.00
2023-11-21T14:10:02.705Z,101273.81
2023-11-21T14:12:37.593Z,101273.47
2023-11-21T14:15:13.868Z,101278.34
2023-11-21T14:17:43.153Z,101282.50
2023-11-21T14:20:17.544Z,101288.19
2023-11-21T14:22:50.583Z,101290.19
2023-11-21T14:25:21.351Z,101290.84
2023-11-21T14:27:50.510Z,101300.41
2023-11-21T14:30:23.207Z,101309.81
2023-11-21T14:32:53.340Z,101307.28
2023-11-21T14:35:22.239Z,101310.81
2023-11-21T14:37:55.116Z,101301.13
2023-11-21T14:40:25.625Z,101310.59
2023-11-21T14:42:54.858Z,101321.19
2023-11-21T14:45:24.731Z,101316.13
2023-11-21T14:48:00.356Z,101318.94
2023-11-21T14:50:51.362Z,101313.69
2023-11-21T14:53:43.844Z,101322.13
2023-11-21T14:56:22.691Z,101324.94
2023-11-21T14:58:53.558Z,101327.06
2023-11-21T15:01:31.987Z,101329.81
2023-11-21T15:03:59.129Z,101333.44
2023-11-21T15:06:31.174Z,101334.38
2023-11-21T15:09:29.414Z,101335.56
2023-11-21T15:12:04.755Z,101351.91
2023-11-21T15:14:35.743Z,101351.16
2023-11-21T15:17:06.100Z,101367.28
2023-11-21T15:19:35.923Z,101365.66
2023-11-21T15:22:05.192Z,101369.84
2023-11-21T15:24:36.237Z,101368.13
2023-11-21T15:27:05.002Z,101379.09
2023-11-21T15:29:33.194Z,101375.19
2023-11-21T15:32:02.167Z,101385.91
2023-11-21T15:34:32.174Z,101385.66
2023-11-21T15:37:00.768Z,101388.28
2023-11-21T15:39:31.528Z,101402.19
2023-11-21T15:42:03.078Z,101399.97
2023-11-21T15:44:35.157Z,101398.63
2023-11-21T15:47:07.659Z,101403.09
2023-11-21T15:49:38.326Z,101402.41
2023-11-21T15:52:11.132Z,101409.97
2023-11-21T15:54:39.790Z,101409.13
2023-11-21T15:57:12.099Z,101418.25
2023-11-21T15:59:44.265Z,101419.63
2023-11-21T16:02:14.112Z,101420.31
2023-11-21T16:04:43.713Z,101432.66
2023-11-21T16:07:12.335Z,101427.34
2023-11-21T16:09:44.070Z,101439.25
2023-11-21T16:12:13.782Z,101441.00
2023-11-21T16:14:46.085Z,101443.31
2023-11-21T16:17:14.982Z,101440.81
2023-11-21T16:19:44.520Z,101449.25
2023-11-21T16:22:13.029Z,101461.28
2023-11-21T16:24:41.800Z,101464.78
2023-11-21T16:27:11.953Z,101470.41
2023-11-21T16:29:43.911Z,101472.34
2023-11-21T16:32:13.440Z,101474.94
2023-11-21T16:34:42.607Z,101490.75
2023-11-21T16:37:13.159Z,101493.88
2023-11-21T16:39:43.131Z,101493.94
2023-11-21T16:42:11.667Z,101509.00
2023-11-21T16:44:41.663Z,101506.59
2023-11-21T16:47:10.654Z,101497.66
2023-11-21T16:49:42.780Z,101501.53
2023-11-21T16:52:11.557Z,101500.94
2023-11-21T16:54:40.602Z,101498.91
2023-11-21T16:57:10.268Z,101506.63
2023-11-21T16:59:38.397Z,101508.09
2023-11-21T17:02:11.480Z,101512.50
2023-11-21T17:04:43.259Z,101517.44
2023-11-21T17:07:12.903Z,101523.38
2023-11-21T17:09:42.001Z,101532.38
2023-11-21T17:12:10.607Z,101537.50
2023-11-21T17:14:44.091Z,101543.38
2023-11-21T17:17:16.118Z,101544.22
2023-11-21T17:19:45.693Z,101553.84
2023-11-21T17:22:14.101Z,101560.47
2023-11-21T17:24:45.026Z,101558.34
2023-11-21T17:27:13.214Z,101562.91
2023-11-21T17:29:41.432Z,101566.75
2023-11-21T17:32:10.910Z,101563.97
2023-11-21T17:34:42.020Z,101567.41
2023-11-21T17:37:12.000Z,101567.16
2023-11-21T17:39:42.296Z,101574.63
2023-11-21T17:42:10.668Z,101577.34
2023-11-21T17:44:40.558Z,101580.91
2023-11-21T17:47:10.588Z,101586.66
2023-11-21T17:49:41.826Z,101591.31
2023-11-21T17:52:11.409Z,101592.34
2023-11-21T17:54:41.520Z,101594.13
2023-11-21T17:57:10.988Z,101601.53
2023-11-21T17:59:40.922Z,101616.97
2023-11-21T18:02:11.451Z,101621.94
2023-11-21T18:04:41.387Z,101628.72
2023-11-21T18:07:10.942Z,101630.66
2023-11-21T18:09:40.539Z,101642.84
2023-11-21T18:12:10.079Z,101644.72
2023-11-21T18:14:39.058Z,101644.78
2023-11-21T18:17:09.391Z,101647.72
2023-11-21T18:19:37.657Z,101645.31
2023-11-21T18:22:08.045Z,101656.59
2023-11-21T18:24:36.428Z,101655.81
2023-11-21T18:27:05.880Z,101666.94
2023-11-21T18:29:35.144Z,101666.09
2023-11-21T18:32:10.988Z,101667.94
2023-11-21T18:34:43.413Z,101671.31
2023-11-21T18:37:13.962Z,101679.53
2023-11-21T18:39:43.433Z,101683.06
2023-11-21T18:42:12.134Z,101674.72
2023-11-21T18:44:52.094Z,101696.56
2023-11-21T18:47:28.460Z,101696.19
2023-11-21T18:49:57.035Z,101701.69
2023-11-21T18:52:28.889Z,101704.22
2023-11-21T18:55:00.554Z,101699.41
2023-11-21T18:57:31.071Z,101700.50
2023-11-21T18:59:59.272Z,101708.38
2023-11-21T19:02:28.225Z,101722.97
2023-11-21T19:04:56.840Z,101727.06
2023-11-21T19:07:29.227Z,101719.28
2023-11-21T19:10:00.619Z,101723.53
2023-11-21T19:12:28.696Z,101725.44
2023-11-21T19:14:57.182Z,101732.31
2023-11-21T19:17:26.042Z,101735.03
2023-11-21T19:19:54.769Z,101743.78
2023-11-21T19:22:23.163Z,101747.22
2023-11-21T19:24:53.182Z,101749.63
2023-11-21T19:27:22.019Z,101759.09
2023-11-21T19:29:51.884Z,101758.66
2023-11-21T19:32:21.479Z,101766.88
2023-11-21T19:34:49.714Z,101765.88
2023-11-21T19:37:20.299Z,101778.56
2023-11-21T19:39:49.127Z,101776.16
2023-11-21T19:42:19.477Z,101784.66
2023-11-21T19:44:49.231Z,101782.31
2023-11-21T19:47:18.178Z,101789.47
2023-11-21T19:49:46.823Z,101797.44
2023-11-21T19:52:15.548Z,101792.25
2023-11-21T19:54:43.608Z,101796.59
2023-11-21T19:57:15.451Z,101791.25
2023-11-21T19:59:46.194Z,101798.28
2023-11-21T20:02:14.534Z,101806.22
2023-11-21T20:04:43.947Z,101815.25
2023-11-21T20:07:16.574Z,101809.00
2023-11-21T20:09:46.041Z,101814.31
2023-11-21T20:12:16.095Z,101818.03
2023-11-21T20:14:47.453Z,101821.50
2023-11-21T20:17:16.369Z,101814.66
2023-11-21T20:19:47.804Z,101825.47
2023-11-21T20:22:17.971Z,101820.72
2023-11-21T20:24:48.251Z,101821.91
2023-11-21T20:27:19.473Z,101819.59
2023-11-21T20:29:49.428Z,101829.31
2023-11-21T20:32:18.335Z,101827.63
2023-11-21T20:34:54.114Z,101834.81
2023-11-21T20:37:22.526Z,101839.13
2023-11-21T20:39:51.080Z,101846.16
2023-11-21T20:42:19.707Z,101850.69
2023-11-21T20:44:49.300Z,101843.88
2023-11-21T20:47:17.696Z,101848.22
2023-11-21T20:49:48.958Z,101848.22
2023-11-21T20:52:18.750Z,101853.44
2023-11-21T20:54:46.813Z,101852.59
2023-11-21T20:57:15.114Z,101861.47
2023-11-21T20:59:44.181Z,101869.78
2023-11-21T21:02:13.718Z,101880.50
2023-11-21T21:04:41.783Z,101876.31
2023-11-21T21:07:09.848Z,101878.88
2023-11-21T21:09:39.716Z,101876.31
2023-11-21T21:12:08.597Z,101879.09
2023-11-21T21:14:36.864Z,101880.31
2023-11-21T21:17:05.250Z,101881.16
2023-11-21T21:19:35.525Z,101876.91
2023-11-21T21:22:04.231Z,101880.66
2023-11-21T21:24:34.181Z,101891.97
2023-11-21T21:27:03.574Z,101884.97
2023-11-21T21:29:32.152Z,101888.63
2023-11-21T21:32:01.650Z,101886.91
2023-11-21T21:34:29.824Z,101891.44
2023-11-21T21:37:03.093Z,101894.91
2023-11-21T21:39:31.901Z,101898.50
2023-11-21T21:42:01.149Z,101911.94
2023-11-21T21:44:29.676Z,101905.78
2023-11-21T21:46:57.826Z,101909.38
2023-11-21T21:49:27.565Z,101919.84
2023-11-21T21:51:55.576Z,101916.50
2023-11-21T21:54:25.839Z,101926.91
2023-11-21T21:56:53.870Z,101929.75
2023-11-21T21:59:22.725Z,101934.97
2023-11-21T22:01:51.553Z,101927.19
2023-11-21T22:04:20.192Z,101928.94
2023-11-21T22:06:49.508Z,101933.28
2023-11-21T22:09:18.240Z,101941.19
2023-11-21T22:11:48.744Z,101933.41
2023-11-21T22:14:16.794Z,101935.09
2023-11-21T22:16:45.842Z,101940.47
2023-11-21T22:19:15.866Z,101937.16
2023-11-21T22:21:44.034Z,101944.25
2023-11-21T22:24:12.497Z,101945.28
2023-11-21T22:26:42.080Z,101952.28
2023-11-21T22:29:12.342Z,101946.34
2023-11-21T22:31:43.423Z,101951.75
2023-11-21T22:34:11.474Z,101951.75
2023-11-21T22:36:40.261Z,101943.22
2023-11-21T22:39:09.497Z,101944.06
2023-11-21T22:41:37.577Z,101955.38
2023-11-21T22:44:06.966Z,101968.53
2023-11-21T22:46:36.967Z,101969.47
2023-11-21T22:49:09.134Z,101968.66
2023-11-21T22:51:37.512Z,101972.25
2023-11-21T22:54:06.090Z,101977.38
2023-11-21T22:56:34.291Z,101975.59
2023-11-21T22:59:02.501Z,101982.47
2023-11-21T23:01:30.741Z,101985.91
2023-11-21T23:04:02.645Z,101986.72
2023-11-21T23:06:33.425Z,101986.75
2023-11-21T23:09:01.788Z,101989.50
2023-11-21T23:11:29.958Z,101983.53
2023-11-21T23:13:58.301Z,101982.47
2023-11-21T23:16:26.491Z,101978.03
2023-11-21T23:18:55.044Z,101984.03
2023-11-21T23:21:24.773Z,101977.88
2023-11-21T23:23:52.805Z,101986.59
2023-11-21T23:26:21.470Z,101991.63
2023-11-21T23:28:51.152Z,102006.38
2023-11-21T23:31:20.879Z,102004.72
2023-11-21T23:33:49.177Z,102004.72
2023-11-21T23:36:20.939Z,101995.03
2023-11-21T23:38:50.968Z,102004.72
2023-11-21T23:41:19.611Z,102003.81
2023-11-21T23:43:47.532Z,102002.25
2023-11-21T23:46:15.711Z,102012.78
2023-11-21T23:48:44.147Z,102018.81
2023-11-21T23:51:12.291Z,102010.03
2023-11-21T23:53:41.139Z,102015.22
2023-11-21T23:56:10.825Z,102022.09
2023-11-21T23:58:40.033Z,102024.75
